Time;durP1;ratioP1;P1;durP2;ratioP2;P2;SDS_P1;SDS_P2;PMS_P1;PMS_P2;Temp;Humidity;BMP_temperature;BMP_pressure;BME280_temperature;BME280_humidity;BME280_pressure;Samples;Min_cycle;Max_cycle;Signal;HPM_P1;HPM_P2
2023/08/20 00:00:38;;;;;;;11.07;9.82;;;;;;;24.58;67.03;100615.53;5034391;28;20223;-66
2023/08/20 00:03:11;;;;;;;12.07;10.13;;;;;;;24.57;66.60;100611.22;5034154;28;20727;-66
2023/08/20 00:05:40;;;;;;;10.85;9.80;;;;;;;24.55;67.18;100607.81;5023615;28;20296;-68
2023/08/20 00:08:08;;;;;;;10.88;9.90;;;;;;;24.54;66.70;100606.13;5034325;28;20626;-68
2023/08/20 00:10:37;;;;;;;11.48;10.27;;;;;;;24.52;67.05;100609.78;5031832;28;20203;-68
2023/08/20 00:13:05;;;;;;;11.18;10.07;;;;;;;24.48;67.38;100598.59;5026309;28;20198;-66
2023/08/20 00:15:34;;;;;;;10.93;9.88;;;;;;;24.47;67.02;100612.72;5033968;28;20214;-68
2023/08/20 00:18:03;;;;;;;11.40;10.32;;;;;;;24.44;67.60;100607.63;5033963;28;20246;-69
2023/08/20 00:20:33;;;;;;;11.52;10.43;;;;;;;24.45;67.36;100608.47;5033660;28;20229;-68
2023/08/20 00:23:02;;;;;;;11.15;10.13;;;;;;;24.41;67.51;100604.34;5032472;28;20692;-65
2023/08/20 00:25:30;;;;;;;11.73;10.63;;;;;;;24.38;67.90;100599.25;5029844;28;20198;-67
2023/08/20 00:27:58;;;;;;;11.57;10.38;;;;;;;24.34;68.25;100606.47;5019844;28;20656;-66
2023/08/20 00:30:26;;;;;;;12.40;10.93;;;;;;;24.33;68.03;100602.13;5033168;28;20302;-67
2023/08/20 00:32:56;;;;;;;11.07;10.05;;;;;;;24.30;68.57;100600.53;5033533;28;20569;-67
2023/08/20 00:35:24;;;;;;;13.23;10.48;;;;;;;24.27;68.48;100595.47;5033247;28;20207;-68
2023/08/20 00:37:52;;;;;;;11.90;10.70;;;;;;;24.28;68.96;100594.50;5031106;28;20236;-69
2023/08/20 00:40:21;;;;;;;12.70;10.85;;;;;;;24.26;68.49;100598.16;5022470;28;20384;-68
2023/08/20 00:42:49;;;;;;;11.80;10.48;;;;;;;24.27;69.00;100599.88;5033646;28;20724;-66
2023/08/20 00:45:17;;;;;;;11.95;10.70;;;;;;;24.26;68.84;100600.81;5033398;28;20202;-67
2023/08/20 00:47:45;;;;;;;13.13;11.30;;;;;;;24.24;68.95;100605.31;5033670;28;20746;-67
2023/08/20 00:50:14;;;;;;;11.68;10.68;;;;;;;24.19;69.21;100596.84;5033587;28;20639;-67
2023/08/20 00:52:43;;;;;;;12.43;11.02;;;;;;;24.20;69.37;100598.56;5031730;28;20222;-69
2023/08/20 00:55:12;;;;;;;11.57;10.20;;;;;;;24.19;69.66;100604.72;5033288;28;20206;-64
2023/08/20 00:57:41;;;;;;;12.57;11.23;;;;;;;24.16;69.87;100597.03;5032869;28;20253;-61
2023/08/20 01:00:10;;;;;;;12.80;11.60;;;;;;;24.16;69.98;100602.31;5032733;28;20210;-64
2023/08/20 01:02:40;;;;;;;12.82;11.52;;;;;;;24.17;69.78;100601.34;5032922;28;20203;-60
2023/08/20 01:05:12;;;;;;;12.98;11.40;;;;;;;24.14;69.91;100594.47;5032622;28;20206;-63
2023/08/20 01:07:53;;;;;;;12.25;11.05;;;;;;;24.15;69.74;100600.59;5032864;28;20209;-63
2023/08/20 01:10:29;;;;;;;13.85;11.80;;;;;;;24.15;70.08;100600.59;5031915;28;20277;-62
2023/08/20 01:12:58;;;;;;;12.80;11.50;;;;;;;24.14;70.11;100593.63;5024311;28;20210;-62
2023/08/20 01:15:26;;;;;;;12.88;11.57;;;;;;;24.15;70.11;100600.59;5032489;28;20234;-62
2023/08/20 01:17:54;;;;;;;12.48;11.38;;;;;;;24.10;70.14;100593.81;5032647;28;20233;-62
2023/08/20 01:20:25;;;;;;;12.88;11.40;;;;;;;24.10;70.35;100603.50;5032266;28;20277;-67
2023/08/20 01:23:23;;;;;;;12.35;11.25;;;;;;;24.06;70.58;100596.72;5032039;28;20650;-62
2023/08/20 01:26:08;;;;;;;12.68;11.32;;;;;;;24.00;70.51;100592.66;5032225;28;20210;-64
2023/08/20 01:28:39;;;;;;;13.75;11.55;;;;;;;24.01;70.75;100593.53;5032654;28;20650;-62
2023/08/20 01:31:08;;;;;;;13.75;11.68;;;;;;;24.00;70.88;100597.06;5017613;28;20628;-62
2023/08/20 01:33:37;;;;;;;11.93;10.82;;;;;;;23.98;70.92;100598.97;5032001;28;20612;-61
2023/08/20 01:36:09;;;;;;;12.65;11.32;;;;;;;23.96;70.71;100595.56;5032324;28;20625;-63
2023/08/20 01:38:37;;;;;;;12.73;11.45;;;;;;;23.93;70.91;100607.09;5032184;28;20289;-65
2023/08/20 01:41:06;;;;;;;12.38;11.13;;;;;;;23.91;71.07;100603.75;5032228;28;20581;-60
2023/08/20 01:43:34;;;;;;;12.82;11.60;;;;;;;23.88;71.21;100596.00;5031479;28;20206;-64
2023/08/20 01:46:03;;;;;;;13.45;12.15;;;;;;;23.81;71.14;100603.41;5031995;28;20424;-62
2023/08/20 01:48:32;;;;;;;14.82;12.00;;;;;;;23.78;71.45;100608.00;5026523;28;20206;-63
2023/08/20 01:51:00;;;;;;;12.40;11.23;;;;;;;23.76;71.58;100604.63;5032356;28;20202;-62
2023/08/20 01:53:28;;;;;;;16.17;12.07;;;;;;;23.75;71.78;100603.78;5031700;28;20669;-61
2023/08/20 01:55:56;;;;;;;13.05;11.73;;;;;;;23.73;71.85;100605.66;5020769;28;20211;-61
2023/08/20 01:58:24;;;;;;;13.15;12.00;;;;;;;23.74;72.05;100602.06;5029260;28;20545;-62
2023/08/20 02:00:53;;;;;;;13.02;11.10;;;;;;;23.75;71.94;100600.28;5031926;28;20693;-63
2023/08/20 02:03:22;;;;;;;13.15;11.85;;;;;;;23.75;72.06;100608.19;5029872;28;20203;-61
2023/08/20 02:05:50;;;;;;;12.98;11.82;;;;;;;23.76;71.96;100615.16;5020744;28;20207;-65
2023/08/20 02:08:19;;;;;;;12.35;11.15;;;;;;;23.76;71.71;100623.91;5017743;28;20210;-60
2023/08/20 02:10:47;;;;;;;15.10;12.00;;;;;;;23.75;71.95;100619.56;5032515;28;20642;-61
2023/08/20 02:13:15;;;;;;;12.43;10.90;;;;;;;23.75;71.92;100616.06;5031657;28;20280;-62
2023/08/20 02:15:42;;;;;;;12.85;11.48;;;;;;;23.73;72.03;100616.16;5012117;28;20685;-63
2023/08/20 02:18:10;;;;;;;12.63;11.30;;;;;;;23.74;72.09;100615.22;5024266;28;20642;-62
2023/08/20 02:20:40;;;;;;;18.48;16.58;;;;;;;23.72;71.99;100611.00;5031571;28;20247;-61
2023/08/20 02:23:07;;;;;;;13.70;12.30;;;;;;;23.71;72.06;100620.66;5028399;28;20206;-65
2023/08/20 02:25:36;;;;;;;15.65;11.88;;;;;;;23.69;72.31;100609.38;5017768;28;20568;-61
2023/08/20 02:28:04;;;;;;;14.68;13.20;;;;;;;23.65;72.25;100614.88;5031269;28;20260;-62
2023/08/20 02:30:32;;;;;;;16.10;11.82;;;;;;;23.61;72.54;100617.69;5031114;28;20658;-63
2023/08/20 02:33:00;;;;;;;13.38;12.07;;;;;;;23.59;72.51;100608.19;5031126;28;20285;-63
2023/08/20 02:35:28;;;;;;;14.27;11.93;;;;;;;23.58;72.67;100607.34;5020794;28;20207;-63
2023/08/20 02:37:57;;;;;;;12.40;11.20;;;;;;;23.60;72.67;100612.50;5028420;28;20547;-61
2023/08/20 02:40:25;;;;;;;13.43;12.15;;;;;;;23.60;72.67;100604.59;5030980;28;20257;-61
2023/08/20 02:42:53;;;;;;;15.88;12.27;;;;;;;23.61;72.42;100612.44;5030574;28;20210;-62
2023/08/20 02:45:21;;;;;;;15.43;14.02;;;;;;;23.58;72.41;100609.97;5031112;28;20199;-61
2023/08/20 02:47:49;;;;;;;14.93;13.40;;;;;;;23.55;72.68;100609.28;5030743;28;20203;-62
2023/08/20 02:50:17;;;;;;;15.25;13.80;;;;;;;23.48;72.86;100611.41;5031163;28;20650;-60
2023/08/20 02:52:46;;;;;;;15.77;13.88;;;;;;;23.41;73.06;100604.78;5030698;28;20541;-62
2023/08/20 02:55:15;;;;;;;13.95;12.65;;;;;;;23.38;73.67;100607.59;5031132;28;20666;-62
2023/08/20 02:57:43;;;;;;;12.60;11.43;;;;;;;23.37;73.54;100603.28;5030848;28;20210;-63
2023/08/20 03:00:13;;;;;;;14.65;13.15;;;;;;;23.38;73.89;100607.59;5030574;28;20207;-62
2023/08/20 03:02:41;;;;;;;13.52;12.20;;;;;;;23.40;73.58;100600.47;5020144;28;20211;-62
2023/08/20 03:05:10;;;;;;;13.43;12.02;;;;;;;23.42;73.70;100603.88;5028007;28;20199;-62
2023/08/20 03:07:38;;;;;;;13.40;12.02;;;;;;;23.45;73.62;100611.56;5030747;28;20670;-62
2023/08/20 03:10:07;;;;;;;13.88;12.68;;;;;;;23.46;73.52;100607.19;5030228;28;20644;-64
2023/08/20 03:12:36;;;;;;;14.43;12.90;;;;;;;23.48;73.42;100606.16;5031002;28;20564;-67
2023/08/20 03:15:05;;;;;;;13.40;11.75;;;;;;;23.49;73.38;100602.59;5030469;28;20206;-63
2023/08/20 03:17:33;;;;;;;13.20;11.90;;;;;;;23.49;73.41;100609.63;5030799;28;20710;-62
2023/08/20 03:20:03;;;;;;;14.13;12.65;;;;;;;23.49;73.42;100612.25;5030889;28;20567;-62
2023/08/20 03:22:31;;;;;;;13.30;12.20;;;;;;;23.46;73.28;100613.28;5030146;28;20579;-61
2023/08/20 03:24:59;;;;;;;13.75;12.45;;;;;;;23.45;73.35;100616.84;5030905;28;20585;-61
2023/08/20 03:27:27;;;;;;;14.98;13.57;;;;;;;23.42;73.37;100617.03;5030316;28;20206;-62
2023/08/20 03:29:56;;;;;;;19.25;13.43;;;;;;;23.44;73.64;100624.81;5030457;28;20319;-60
2023/08/20 03:32:24;;;;;;;14.45;13.07;;;;;;;23.44;73.77;100635.34;5030332;28;20237;-63
2023/08/20 03:34:53;;;;;;;15.20;13.65;;;;;;;23.42;73.30;100629.31;5030452;28;20205;-66
2023/08/20 03:37:22;;;;;;;14.82;13.43;;;;;;;23.40;73.16;100618.88;5030646;28;20253;-62
2023/08/20 03:39:50;;;;;;;15.63;14.13;;;;;;;23.38;73.34;100621.63;5030703;28;20222;-62
2023/08/20 03:42:18;;;;;;;13.70;12.43;;;;;;;23.38;73.46;100620.75;5030384;28;20225;-65
2023/08/20 03:44:46;;;;;;;16.65;12.75;;;;;;;23.42;73.51;100627.56;5030481;28;20632;-63
2023/08/20 03:47:15;;;;;;;14.07;12.77;;;;;;;23.44;73.45;100624.81;5030397;28;20210;-62
2023/08/20 03:49:43;;;;;;;15.95;14.43;;;;;;;23.43;72.99;100623.97;5028563;28;20665;-61
2023/08/20 03:52:11;;;;;;;15.75;12.75;;;;;;;23.42;73.25;100616.16;5021457;28;20260;-63
2023/08/20 03:54:39;;;;;;;18.13;13.45;;;;;;;23.44;73.48;100617.78;5030644;28;20211;-61
2023/08/20 03:57:06;;;;;;;15.25;13.65;;;;;;;23.46;73.48;100618.56;5030627;28;20677;-61
2023/08/20 03:59:34;;;;;;;16.75;14.75;;;;;;;23.49;73.21;100623.66;5030693;28;20616;-62
2023/08/20 04:02:02;;;;;;;14.00;12.68;;;;;;;23.50;73.00;100619.25;5030184;28;20257;-66
2023/08/20 04:04:32;;;;;;;14.57;12.93;;;;;;;23.50;73.40;100625.34;5018583;28;20207;-61
2023/08/20 04:07:00;;;;;;;14.93;13.52;;;;;;;23.53;73.10;100626.97;5031719;28;20611;-64
2023/08/20 04:09:28;;;;;;;14.50;13.10;;;;;;;23.56;73.42;100619.72;5034272;28;20297;-62
2023/08/20 04:11:56;;;;;;;14.32;12.38;;;;;;;23.63;72.89;100626.31;5033999;28;20668;-61
2023/08/20 04:14:24;;;;;;;14.20;12.90;;;;;;;23.68;72.68;100627.91;5024584;28;20231;-64
2023/08/20 04:16:52;;;;;;;15.82;12.57;;;;;;;23.73;72.56;100626.69;5029543;28;20210;-63
2023/08/20 04:19:20;;;;;;;13.82;12.52;;;;;;;23.79;72.65;100628.13;5033732;28;20206;-62
2023/08/20 04:21:49;;;;;;;14.15;11.68;;;;;;;23.88;72.57;100626.75;5032783;28;20219;-60
2023/08/20 04:24:17;;;;;;;14.93;12.35;;;;;;;23.94;72.07;100626.41;5033521;28;20207;-61
2023/08/20 04:26:45;;;;;;;14.38;12.95;;;;;;;24.03;72.08;100633.75;5029876;28;20215;-61
2023/08/20 04:29:13;;;;;;;14.68;13.15;;;;;;;24.09;71.66;100633.41;5033424;28;20227;-62
2023/08/20 04:31:40;;;;;;;14.48;12.52;;;;;;;24.15;71.32;100629.56;5033282;28;20253;-61
2023/08/20 04:34:08;;;;;;;13.63;12.32;;;;;;;24.23;71.25;100625.56;5033665;28;20666;-61
2023/08/20 04:36:37;;;;;;;14.52;13.00;;;;;;;24.31;71.06;100627.72;5033692;28;20627;-61
2023/08/20 04:39:07;;;;;;;14.07;12.57;;;;;;;24.36;70.73;100625.66;5033314;28;20213;-62
2023/08/20 04:41:35;;;;;;;14.02;12.63;;;;;;;24.47;70.57;100625.88;5033447;28;20281;-63
2023/08/20 04:44:03;;;;;;;14.98;13.38;;;;;;;24.55;70.22;100631.53;5033261;28;20218;-63
2023/08/20 04:46:31;;;;;;;15.00;13.50;;;;;;;24.62;69.57;100620.63;5033347;28;20206;-61
2023/08/20 04:48:58;;;;;;;14.25;12.95;;;;;;;24.69;69.33;100621.97;5033318;28;20289;-61
2023/08/20 04:51:26;;;;;;;16.38;14.88;;;;;;;24.78;69.46;100629.28;5031786;28;20203;-62
2023/08/20 04:53:54;;;;;;;15.80;14.20;;;;;;;24.89;68.74;100631.25;5033445;28;20733;-63
2023/08/20 04:56:24;;;;;;;15.30;13.70;;;;;;;25.00;68.21;100627.03;5032426;28;20240;-66
2023/08/20 04:58:52;;;;;;;16.50;13.65;;;;;;;25.10;67.63;100624.69;5030965;28;20627;-61
2023/08/20 05:01:20;;;;;;;15.07;13.55;;;;;;;25.27;67.70;100626.28;5033202;28;20218;-60
2023/08/20 05:03:48;;;;;;;15.80;14.30;;;;;;;25.42;67.05;100627.94;5031459;28;20210;-61
2023/08/20 05:06:16;;;;;;;15.60;14.00;;;;;;;25.57;66.51;100630.53;5032742;28;20207;-63
2023/08/20 05:08:44;;;;;;;15.23;13.73;;;;;;;25.72;65.41;100637.44;5032834;28;20211;-61
2023/08/20 05:11:12;;;;;;;15.27;13.80;;;;;;;25.86;64.71;100637.41;5033070;28;20678;-63
2023/08/20 05:13:41;;;;;;;15.10;13.75;;;;;;;25.99;64.24;100626.88;5032480;28;20333;-65
2023/08/20 05:16:09;;;;;;;15.68;14.15;;;;;;;26.20;63.64;100635.16;5028400;28;20202;-61
2023/08/20 05:18:37;;;;;;;14.60;13.30;;;;;;;26.36;63.29;100633.16;5029882;28;20214;-62
2023/08/20 05:21:05;;;;;;;15.52;14.13;;;;;;;26.56;62.32;100639.78;5032899;28;20739;-62
2023/08/20 05:23:33;;;;;;;14.95;13.65;;;;;;;26.76;61.86;100641.03;5032277;28;20227;-67
2023/08/20 05:26:01;;;;;;;15.30;13.43;;;;;;;27.00;60.77;100645.56;5032509;28;20199;-63
2023/08/20 05:28:29;;;;;;;14.45;13.05;;;;;;;27.23;59.73;100644.78;5032364;28;20214;-64
2023/08/20 05:30:58;;;;;;;14.18;12.70;;;;;;;27.51;58.72;100642.81;5032163;28;20732;-64
2023/08/20 05:33:26;;;;;;;14.30;13.10;;;;;;;27.86;58.10;100638.41;5032263;28;20207;-62
2023/08/20 05:35:54;;;;;;;14.13;12.13;;;;;;;28.36;56.65;100644.34;5032303;28;20206;-62
2023/08/20 05:38:22;;;;;;;14.18;12.73;;;;;;;29.02;54.60;100647.25;5032580;28;20676;-63
2023/08/20 05:40:50;;;;;;;12.02;10.93;;;;;;;29.97;52.60;100641.31;5019588;28;20571;-62
2023/08/20 05:43:18;;;;;;;12.73;11.52;;;;;;;31.11;50.06;100648.44;5031126;28;20292;-63
2023/08/20 05:45:46;;;;;;;13.18;11.90;;;;;;;32.17;46.44;100639.75;5020895;28;20210;-61
2023/08/20 05:48:15;;;;;;;12.80;11.60;;;;;;;33.00;44.14;100639.97;5029147;28;20284;-62
2023/08/20 05:50:43;;;;;;;12.00;10.80;;;;;;;33.18;42.54;100641.69;5030433;28;20210;-63
2023/08/20 05:53:12;;;;;;;11.85;10.75;;;;;;;33.13;42.60;100643.94;5032115;28;20199;-62
2023/08/20 05:55:40;;;;;;;12.02;10.93;;;;;;;32.91;42.48;100641.63;5031599;28;20409;-62
2023/08/20 05:58:08;;;;;;;11.02;10.10;;;;;;;32.65;43.40;100636.97;5031660;28;20217;-62
2023/08/20 06:00:35;;;;;;;11.02;9.77;;;;;;;32.67;43.32;100637.69;5031759;28;20230;-62
2023/08/20 06:03:04;;;;;;;12.25;8.70;;;;;;;33.36;43.02;100639.03;5030710;28;20214;-61
2023/08/20 06:05:33;;;;;;;9.88;9.07;;;;;;;34.40;40.76;100643.81;5018168;28;20203;-62
2023/08/20 06:08:01;;;;;;;10.60;9.57;;;;;;;35.65;38.26;100636.97;5031426;28;20206;-61
2023/08/20 06:10:29;;;;;;;10.00;9.10;;;;;;;36.86;35.96;100637.84;5031507;28;20199;-63
2023/08/20 06:12:57;;;;;;;9.63;8.75;;;;;;;38.03;32.83;100637.78;5031842;28;20650;-62
2023/08/20 06:15:25;;;;;;;10.27;9.38;;;;;;;39.11;31.54;100637.28;5031646;28;20202;-62
2023/08/20 06:17:53;;;;;;;9.23;8.32;;;;;;;40.09;29.76;100636.59;5031568;28;20202;-62
2023/08/20 06:20:21;;;;;;;9.52;8.63;;;;;;;40.92;28.21;100641.28;5031292;28;20222;-61
2023/08/20 06:22:51;;;;;;;9.50;7.78;;;;;;;41.58;26.97;100646.09;5031565;28;20229;-63
2023/08/20 06:25:19;;;;;;;8.77;7.90;;;;;;;42.12;26.12;100640.47;5031310;28;20264;-62
2023/08/20 06:27:46;;;;;;;8.27;7.57;;;;;;;42.48;25.44;100639.19;5031416;28;20577;-63
2023/08/20 06:30:14;;;;;;;7.95;7.18;;;;;;;42.81;25.01;100640.97;5029749;28;20245;-63
2023/08/20 06:32:43;;;;;;;7.72;6.97;;;;;;;43.16;24.04;100639.56;5030989;28;20224;-62
2023/08/20 06:35:11;;;;;;;8.25;7.55;;;;;;;43.52;23.58;100643.53;5030607;28;20214;-63
2023/08/20 06:37:40;;;;;;;7.55;6.85;;;;;;;43.84;23.03;100638.88;5031119;28;20586;-62
2023/08/20 06:40:10;;;;;;;7.88;7.18;;;;;;;44.13;22.54;100642.81;5031505;28;20198;-63
2023/08/20 06:42:38;;;;;;;10.48;7.47;;;;;;;44.37;22.33;100645.72;5031070;28;20229;-62
2023/08/20 06:45:09;;;;;;;10.18;7.32;;;;;;;44.45;22.21;100648.19;5017429;28;20202;-62
2023/08/20 06:47:37;;;;;;;9.00;7.38;;;;;;;44.44;22.39;100651.94;5030946;28;20283;-64
2023/08/20 06:50:07;;;;;;;8.13;7.55;;;;;;;44.44;22.58;100645.66;5030862;28;20661;-63
2023/08/20 06:52:35;;;;;;;9.63;7.68;;;;;;;44.77;21.89;100645.31;5031021;28;20233;-61
2023/08/20 06:55:03;;;;;;;8.30;6.78;;;;;;;45.15;21.58;100645.03;5030886;28;20206;-63
2023/08/20 06:57:32;;;;;;;7.97;7.13;;;;;;;45.38;21.36;100652.44;5031117;28;20252;-63
2023/08/20 07:00:01;;;;;;;8.63;7.75;;;;;;;45.64;20.97;100650.38;5030058;28;20237;-63
2023/08/20 07:02:28;;;;;;;8.13;7.38;;;;;;;45.91;20.65;100656.25;5030765;28;20205;-63
2023/08/20 07:04:56;;;;;;;8.50;7.13;;;;;;;46.14;20.30;100661.69;5030712;28;20216;-63
2023/08/20 07:07:24;;;;;;;7.72;7.03;;;;;;;46.33;19.77;100656.97;5031061;28;20206;-64
2023/08/20 07:09:52;;;;;;;7.43;6.75;;;;;;;46.49;19.83;100667.13;5016819;28;20302;-65
2023/08/20 07:12:20;;;;;;;7.53;6.82;;;;;;;46.50;19.55;100657.88;5011270;28;20225;-61
2023/08/20 07:14:50;;;;;;;8.15;7.00;;;;;;;46.51;19.52;100666.91;5016676;28;20261;-61
2023/08/20 07:17:18;;;;;;;8.25;7.18;;;;;;;46.36;19.36;100661.09;5029647;28;20198;-62
2023/08/20 07:19:45;;;;;;;7.68;6.93;;;;;;;45.82;20.21;100658.47;5019440;28;20218;-63
2023/08/20 07:22:13;;;;;;;8.52;7.82;;;;;;;45.23;20.79;100661.03;5028242;28;20197;-64
2023/08/20 07:24:41;;;;;;;7.75;7.10;;;;;;;44.97;21.22;100659.47;5030551;28;20210;-62
2023/08/20 07:27:12;;;;;;;9.25;7.18;;;;;;;45.11;21.12;100657.44;5030352;28;20201;-61
2023/08/20 07:29:41;;;;;;;9.13;7.68;;;;;;;45.24;21.14;100656.41;5030213;28;20285;-68
2023/08/20 07:32:10;;;;;;;8.52;7.75;;;;;;;45.38;20.84;100657.88;5029940;28;20212;-62
2023/08/20 07:34:38;;;;;;;8.32;7.55;;;;;;;45.54;20.69;100662.66;5029928;28;20233;-63
2023/08/20 07:37:06;;;;;;;9.05;8.25;;;;;;;45.68;20.67;100657.84;5030526;28;20249;-63
2023/08/20 07:39:34;;;;;;;8.77;7.88;;;;;;;45.90;19.95;100662.75;5030474;28;20205;-64
2023/08/20 07:42:02;;;;;;;8.38;7.63;;;;;;;45.90;19.69;100660.88;5033726;28;20572;-63
2023/08/20 07:44:30;;;;;;;10.02;8.20;;;;;;;46.04;19.99;100660.63;5034324;28;20240;-67
2023/08/20 07:46:58;;;;;;;9.05;8.23;;;;;;;46.30;19.43;100660.16;5034257;28;20213;-68
2023/08/20 07:49:27;;;;;;;9.18;8.25;;;;;;;46.14;19.91;100666.31;5034526;28;20297;-64
2023/08/20 07:51:56;;;;;;;8.82;7.95;;;;;;;45.76;19.71;100667.56;5034681;28;20557;-65
2023/08/20 07:54:24;;;;;;;8.77;7.85;;;;;;;45.27;20.12;100666.84;5034482;28;20659;-61
2023/08/20 07:56:52;;;;;;;7.15;6.55;;;;;;;45.03;20.46;100658.53;5034160;28;20256;-62
2023/08/20 07:59:19;;;;;;;10.90;7.65;;;;;;;45.24;20.22;100664.56;5034336;28;20568;-62
2023/08/20 08:01:48;;;;;;;12.20;7.38;;;;;;;45.50;19.86;100655.22;5034251;28;20680;-62
2023/08/20 08:04:16;;;;;;;7.72;7.05;;;;;;;45.88;19.44;100662.16;5032499;28;20224;-64
2023/08/20 08:06:45;;;;;;;7.85;6.43;;;;;;;46.50;18.64;100662.50;5034073;28;20649;-62
2023/08/20 08:09:21;;;;;;;7.72;6.78;;;;;;;46.45;19.16;100657.78;5033941;28;20205;-63
2023/08/20 08:11:49;;;;;;;9.20;7.40;;;;;;;46.48;19.27;100660.03;5019838;28;20237;-63
2023/08/20 08:14:17;;;;;;;7.60;6.90;;;;;;;46.64;19.42;100660.38;5025610;28;20202;-63
2023/08/20 08:16:47;;;;;;;8.90;8.10;;;;;;;46.34;19.26;100658.63;5027741;28;20244;-61
2023/08/20 08:19:15;;;;;;;7.43;6.82;;;;;;;46.23;19.57;100654.00;5031391;28;20202;-62
2023/08/20 08:21:45;;;;;;;8.27;7.47;;;;;;;46.07;19.90;100651.97;5033783;28;20213;-62
2023/08/20 08:24:14;;;;;;;7.82;7.07;;;;;;;45.92;19.81;100656.03;5031055;28;20681;-62
2023/08/20 08:26:42;;;;;;;7.90;7.07;;;;;;;46.41;19.39;100651.16;5033485;28;20201;-63
2023/08/20 08:29:10;;;;;;;7.47;6.63;;;;;;;46.73;18.97;100648.84;5032626;28;20198;-61
2023/08/20 08:31:38;;;;;;;7.10;6.13;;;;;;;46.38;18.57;100648.91;5032123;28;20241;-62
2023/08/20 08:34:06;;;;;;;6.70;6.15;;;;;;;46.15;18.73;100654.34;5033367;28;20221;-64
2023/08/20 08:36:34;;;;;;;6.57;5.97;;;;;;;46.07;18.69;100649.25;5033307;28;20205;-63
2023/08/20 08:39:07;;;;;;;7.38;6.68;;;;;;;46.27;18.40;100660.66;5032100;28;20965;-64
2023/08/20 08:41:39;;;;;;;6.65;6.05;;;;;;;46.19;18.29;100653.63;5033425;28;20256;-64
2023/08/20 08:44:09;;;;;;;6.63;6.13;;;;;;;45.65;18.82;100652.88;5033474;28;20685;-62
2023/08/20 08:46:39;;;;;;;7.07;6.05;;;;;;;44.95;19.71;100658.03;5033121;28;20206;-62
2023/08/20 08:49:09;;;;;;;6.88;6.18;;;;;;;44.05;20.21;100658.59;5033383;28;20252;-62
2023/08/20 08:51:37;;;;;;;6.43;5.90;;;;;;;43.46;21.08;100657.97;5032929;28;20297;-65
2023/08/20 08:54:09;;;;;;;6.55;5.65;;;;;;;42.10;21.89;100660.69;5033474;28;20665;-65
2023/08/20 08:56:37;;;;;;;5.93;5.45;;;;;;;40.96;23.13;100659.59;5033110;28;20211;-61
2023/08/20 08:59:05;;;;;;;6.15;5.55;;;;;;;39.89;24.66;100665.31;5033221;28;20699;-63
2023/08/20 09:01:33;;;;;;;6.78;6.10;;;;;;;39.42;25.25;100668.56;5032781;28;20205;-62
2023/08/20 09:04:04;;;;;;;6.40;5.90;;;;;;;39.41;25.73;100665.03;5032923;28;20292;-64
2023/08/20 09:06:45;;;;;;;6.47;5.95;;;;;;;39.73;25.27;100665.56;5032729;28;20206;-65
2023/08/20 09:09:15;;;;;;;6.63;6.13;;;;;;;40.58;24.45;100664.63;5031665;28;20207;-63
2023/08/20 09:11:43;;;;;;;6.57;5.97;;;;;;;41.49;23.28;100659.78;5031994;28;20206;-62
2023/08/20 09:14:22;;;;;;;6.55;6.05;;;;;;;42.26;22.82;100659.44;5032573;28;20306;-64
2023/08/20 09:16:56;;;;;;;8.18;6.72;;;;;;;42.63;22.51;100656.00;5031437;28;20294;-62
2023/08/20 09:19:25;;;;;;;7.22;6.53;;;;;;;42.42;22.82;100664.41;5021601;28;20202;-64
2023/08/20 09:21:53;;;;;;;6.85;6.35;;;;;;;42.25;22.63;100655.03;5032350;28;20207;-64
2023/08/20 09:24:34;;;;;;;8.65;6.47;;;;;;;41.78;22.62;100651.50;5032619;28;20750;-62
2023/08/20 09:27:04;;;;;;;6.60;6.00;;;;;;;41.44;23.12;100656.06;5032736;28;20202;-64
2023/08/20 09:29:34;;;;;;;6.30;5.70;;;;;;;41.50;23.19;100655.22;5018116;28;20260;-63
2023/08/20 09:32:03;;;;;;;6.82;6.22;;;;;;;41.23;23.81;100648.88;5032344;28;20237;-62
2023/08/20 09:34:39;;;;;;;6.32;5.85;;;;;;;40.71;24.49;100651.16;5031980;28;20210;-63
2023/08/20 09:37:09;;;;;;;7.43;5.80;;;;;;;40.32;24.99;100658.00;5032142;28;20217;-62
2023/08/20 09:39:39;;;;;;;6.82;6.18;;;;;;;40.00;25.40;100653.97;5030772;28;20598;-60
2023/08/20 09:42:07;;;;;;;6.72;6.13;;;;;;;39.45;25.56;100654.69;5031958;28;20206;-61
2023/08/20 09:44:36;;;;;;;6.82;6.32;;;;;;;38.93;26.82;100656.56;5031938;28;20226;-63
2023/08/20 09:47:07;;;;;;;6.43;5.88;;;;;;;38.33;27.38;100660.19;5032160;28;20206;-61
2023/08/20 09:49:38;;;;;;;7.13;6.47;;;;;;;37.74;27.96;100655.50;5031906;28;20209;-61
2023/08/20 09:52:09;;;;;;;7.25;6.55;;;;;;;37.75;27.87;100651.81;5031933;28;20206;-64
2023/08/20 09:55:07;;;;;;;7.25;6.00;;;;;;;37.73;28.19;100653.81;5031628;28;20256;-67
2023/08/20 09:57:37;;;;;;;6.32;5.72;;;;;;;38.06;28.01;100645.50;5031011;28;20223;-66
2023/08/20 10:00:09;;;;;;;6.38;5.88;;;;;;;38.28;27.86;100647.31;5031411;28;20207;-61
2023/08/20 10:02:38;;;;;;;6.90;6.40;;;;;;;38.49;27.04;100648.47;5031732;28;20577;-64
2023/08/20 10:05:08;;;;;;;7.00;6.38;;;;;;;38.61;26.85;100637.03;5030962;28;20227;-62
2023/08/20 10:07:36;;;;;;;7.00;6.30;;;;;;;38.80;26.46;100630.28;5031524;28;20194;-63
2023/08/20 10:10:08;;;;;;;7.50;6.15;;;;;;;38.78;26.80;100636.84;5030025;28;20312;-61
2023/08/20 10:12:38;;;;;;;6.47;5.97;;;;;;;38.75;27.46;100632.66;5031365;28;20214;-63
2023/08/20 10:15:10;;;;;;;6.82;6.32;;;;;;;39.06;26.53;100624.34;5030515;28;20256;-62
2023/08/20 10:17:39;;;;;;;6.90;6.30;;;;;;;39.37;25.73;100624.13;5019506;28;20214;-66
2023/08/20 10:20:10;;;;;;;10.07;7.05;;;;;;;39.59;25.54;100622.25;5031587;28;20210;-63
2023/08/20 10:22:38;;;;;;;6.70;6.20;;;;;;;39.24;25.69;100621.28;5025607;28;20281;-64
2023/08/20 10:25:09;;;;;;;7.15;6.55;;;;;;;38.36;26.99;100628.41;5025098;28;20273;-65
2023/08/20 10:27:42;;;;;;;7.25;6.65;;;;;;;38.59;27.04;100622.06;5027938;28;20206;-61
2023/08/20 10:30:16;;;;;;;7.70;7.00;;;;;;;38.92;26.64;100616.31;5030996;28;20258;-62
2023/08/20 10:32:48;;;;;;;7.60;7.00;;;;;;;39.24;25.82;100610.50;5030938;28;20206;-62
2023/08/20 10:35:18;;;;;;;7.45;6.75;;;;;;;39.70;25.86;100612.84;5031341;28;20288;-62
2023/08/20 10:38:05;;;;;;;7.30;6.60;;;;;;;40.21;25.49;100619.88;5028434;28;20203;-61
2023/08/20 10:40:53;;;;;;;7.15;6.32;;;;;;;40.45;24.93;100605.91;5020943;28;20210;-64
2023/08/20 10:43:34;;;;;;;7.10;6.50;;;;;;;40.11;25.14;100611.28;5017196;28;20640;-62
2023/08/20 10:46:15;;;;;;;7.10;6.43;;;;;;;40.43;24.83;100609.81;5031160;28;20586;-63
2023/08/20 10:48:46;;;;;;;7.30;6.70;;;;;;;40.69;24.63;100612.72;5031193;28;20680;-69
2023/08/20 10:51:16;;;;;;;7.40;6.80;;;;;;;40.47;24.36;100605.69;5031114;28;20677;-62
2023/08/20 10:53:50;;;;;;;7.45;6.85;;;;;;;39.77;25.46;100613.75;5030999;28;20213;-62
2023/08/20 10:56:19;;;;;;;6.85;6.15;;;;;;;39.41;26.34;100612.97;5031185;28;20194;-61
2023/08/20 10:58:48;;;;;;;7.00;6.50;;;;;;;39.52;26.75;100607.03;5030757;28;20206;-62
2023/08/20 11:01:19;;;;;;;7.47;6.55;;;;;;;39.67;25.64;100610.50;5031298;28;20816;-62
2023/08/20 11:03:49;;;;;;;9.93;6.75;;;;;;;39.63;25.55;100606.53;5016836;28;20210;-61
2023/08/20 11:06:18;;;;;;;7.30;6.35;;;;;;;39.88;25.60;100606.97;5018650;28;20344;-62
2023/08/20 11:08:47;;;;;;;6.78;6.20;;;;;;;39.83;24.85;100604.84;5028679;28;20203;-60
2023/08/20 11:11:16;;;;;;;7.20;6.50;;;;;;;39.31;25.87;100603.31;5030454;28;20605;-62
2023/08/20 11:13:45;;;;;;;7.10;6.60;;;;;;;39.19;26.58;100604.81;5030555;28;20203;-61
2023/08/20 11:16:13;;;;;;;6.90;6.40;;;;;;;39.05;26.12;100603.00;5031460;28;20744;-62
2023/08/20 11:18:41;;;;;;;7.63;6.90;;;;;;;38.82;27.57;100601.28;5035020;28;20256;-65
2023/08/20 11:21:09;;;;;;;7.55;6.85;;;;;;;38.57;27.55;100599.91;5035096;28;20661;-63
2023/08/20 11:23:39;;;;;;;7.85;7.03;;;;;;;38.49;27.43;100595.44;5034800;28;20214;-65
2023/08/20 11:26:08;;;;;;;8.30;7.00;;;;;;;38.40;27.04;100591.16;5034759;28;20692;-66